Аэропорт: Игнатьево. Благовещенск

ICAO: UHBB

METAR:
2019/01/21 23:00
UHBB 212300Z 07002MPS 3900 -SN NSC M21/M24 Q1006 R36/490150 TEMPO 1500 SN RMK QFE737/0983
METAR:
2019/01/21 21:00
TAF COR UHBB 211951Z 2121/2221 09003MPS 3100 -SN NSC 
      TEMPO 2121/2215 2100 -SN SCT010 
      BECMG 2202/2204 01003MPS 
     FM221500 36003MPS CAVOK